sensor_id;sensor_type;location;lat;lon;timestamp;pressure;altitude;pressure_sealevel;temperature;humidity
48652;BME280;34442;52.362;-1.302;2023-06-14T00:00:31;100489.25;;;15.83;60.18
48652;BME280;34442;52.362;-1.302;2023-06-14T00:02:59;100492.47;;;15.56;62.64
48652;BME280;34442;52.362;-1.302;2023-06-14T00:05:24;100496.59;;;15.47;62.90
48652;BME280;34442;52.362;-1.302;2023-06-14T00:07:50;100500.34;;;15.46;63.84
48652;BME280;34442;52.362;-1.302;2023-06-14T00:10:18;100498.13;;;15.31;65.86
48652;BME280;34442;52.362;-1.302;2023-06-14T00:12:44;100504.22;;;15.50;65.94
48652;BME280;34442;52.362;-1.302;2023-06-14T00:15:09;100496.91;;;15.51;66.86
48652;BME280;34442;52.362;-1.302;2023-06-14T00:17:35;100498.00;;;15.50;67.98
48652;BME280;34442;52.362;-1.302;2023-06-14T00:20:03;100502.34;;;15.51;68.05
48652;BME280;34442;52.362;-1.302;2023-06-14T00:22:30;100508.00;;;15.37;70.08
48652;BME280;34442;52.362;-1.302;2023-06-14T00:24:57;100501.88;;;15.42;70.41
48652;BME280;34442;52.362;-1.302;2023-06-14T00:27:25;100501.88;;;15.42;70.86
48652;BME280;34442;52.362;-1.302;2023-06-14T00:29:51;100495.13;;;15.09;74.52
48652;BME280;34442;52.362;-1.302;2023-06-14T00:32:18;100501.38;;;15.10;75.71
48652;BME280;34442;52.362;-1.302;2023-06-14T00:34:43;100495.84;;;15.17;75.17
48652;BME280;34442;52.362;-1.302;2023-06-14T00:37:09;100500.00;;;15.19;76.01
48652;BME280;34442;52.362;-1.302;2023-06-14T00:39:34;100501.13;;;15.00;78.17
48652;BME280;34442;52.362;-1.302;2023-06-14T00:42:00;100493.38;;;15.03;78.64
48652;BME280;34442;52.362;-1.302;2023-06-14T00:44:28;100488.03;;;14.85;80.73
48652;BME280;34442;52.362;-1.302;2023-06-14T00:46:53;100488.31;;;14.95;80.05
48652;BME280;34442;52.362;-1.302;2023-06-14T00:49:21;100475.69;;;15.01;80.78
48652;BME280;34442;52.362;-1.302;2023-06-14T00:51:46;100481.38;;;15.11;80.22
48652;BME280;34442;52.362;-1.302;2023-06-14T00:54:12;100482.56;;;15.15;80.21
48652;BME280;34442;52.362;-1.302;2023-06-14T00:56:38;100481.75;;;15.14;80.16
48652;BME280;34442;52.362;-1.302;2023-06-14T00:59:04;100476.53;;;15.01;81.03
48652;BME280;34442;52.362;-1.302;2023-06-14T01:01:32;100478.63;;;14.87;84.43
48652;BME280;34442;52.362;-1.302;2023-06-14T01:03:59;100479.00;;;14.91;83.24
48652;BME280;34442;52.362;-1.302;2023-06-14T01:06:42;100481.91;;;14.78;88.00
48652;BME280;34442;52.362;-1.302;2023-06-14T01:13:07;100476.47;;;14.66;92.68
48652;BME280;34442;52.362;-1.302;2023-06-14T01:15:36;100481.72;;;14.49;87.66
48652;BME280;34442;52.362;-1.302;2023-06-14T01:18:03;100476.88;;;14.51;88.18
48652;BME280;34442;52.362;-1.302;2023-06-14T01:20:31;100468.44;;;14.59;87.83
48652;BME280;34442;52.362;-1.302;2023-06-14T01:22:57;100478.69;;;14.57;88.44
48652;BME280;34442;52.362;-1.302;2023-06-14T01:25:23;100485.81;;;14.52;88.39
48652;BME280;34442;52.362;-1.302;2023-06-14T01:28:00;100485.16;;;14.68;87.87
48652;BME280;34442;52.362;-1.302;2023-06-14T01:30:27;100481.47;;;14.51;88.75
48652;BME280;34442;52.362;-1.302;2023-06-14T01:32:54;100476.31;;;14.49;89.21
48652;BME280;34442;52.362;-1.302;2023-06-14T01:35:21;100477.53;;;14.47;89.53
48652;BME280;34442;52.362;-1.302;2023-06-14T01:37:47;100474.66;;;14.60;88.89
48652;BME280;34442;52.362;-1.302;2023-06-14T01:40:14;100475.72;;;14.59;89.16
48652;BME280;34442;52.362;-1.302;2023-06-14T01:42:41;100476.97;;;14.45;89.90
48652;BME280;34442;52.362;-1.302;2023-06-14T01:45:08;100477.16;;;14.43;90.04
48652;BME280;34442;52.362;-1.302;2023-06-14T01:47:35;100480.31;;;14.40;90.80
48652;BME280;34442;52.362;-1.302;2023-06-14T01:50:02;100486.41;;;14.24;92.16
48652;BME280;34442;52.362;-1.302;2023-06-14T01:52:28;100482.00;;;14.41;91.45
48652;BME280;34442;52.362;-1.302;2023-06-14T01:54:53;100479.81;;;14.50;90.71
48652;BME280;34442;52.362;-1.302;2023-06-14T01:57:19;100482.06;;;14.53;90.60
48652;BME280;34442;52.362;-1.302;2023-06-14T01:59:45;100484.53;;;14.54;90.12
48652;BME280;34442;52.362;-1.302;2023-06-14T02:02:14;100486.47;;;14.47;91.05
48652;BME280;34442;52.362;-1.302;2023-06-14T02:04:43;100491.50;;;14.44;92.43
48652;BME280;34442;52.362;-1.302;2023-06-14T02:07:09;100489.88;;;14.43;92.04
48652;BME280;34442;52.362;-1.302;2023-06-14T02:09:34;100485.59;;;14.35;92.01
48652;BME280;34442;52.362;-1.302;2023-06-14T02:12:01;100482.91;;;14.35;92.64
48652;BME280;34442;52.362;-1.302;2023-06-14T02:14:26;100484.03;;;14.27;92.82
48652;BME280;34442;52.362;-1.302;2023-06-14T02:16:52;100484.53;;;14.24;93.28
48652;BME280;34442;52.362;-1.302;2023-06-14T02:19:19;100488.81;;;14.13;93.92
48652;BME280;34442;52.362;-1.302;2023-06-14T02:21:45;100485.34;;;14.06;94.58
48652;BME280;34442;52.362;-1.302;2023-06-14T02:24:10;100496.63;;;14.03;94.83
48652;BME280;34442;52.362;-1.302;2023-06-14T02:26:36;100494.13;;;14.02;95.09
48652;BME280;34442;52.362;-1.302;2023-06-14T02:29:05;100493.75;;;13.98;95.64
48652;BME280;34442;52.362;-1.302;2023-06-14T02:31:31;100490.09;;;13.93;95.84
48652;BME280;34442;52.362;-1.302;2023-06-14T02:33:57;100497.59;;;13.90;95.88
48652;BME280;34442;52.362;-1.302;2023-06-14T02:36:22;100493.03;;;13.91;95.75
48652;BME280;34442;52.362;-1.302;2023-06-14T02:38:48;100487.84;;;13.89;95.53
48652;BME280;34442;52.362;-1.302;2023-06-14T02:41:13;100486.88;;;13.84;96.21
48652;BME280;34442;52.362;-1.302;2023-06-14T02:43:38;100483.34;;;13.83;96.35
48652;BME280;34442;52.362;-1.302;2023-06-14T02:46:04;100480.41;;;13.85;95.83
48652;BME280;34442;52.362;-1.302;2023-06-14T02:48:30;100485.72;;;13.73;96.71
48652;BME280;34442;52.362;-1.302;2023-06-14T02:50:55;100483.84;;;13.74;96.77
48652;BME280;34442;52.362;-1.302;2023-06-14T02:53:22;100483.41;;;13.77;96.22
48652;BME280;34442;52.362;-1.302;2023-06-14T02:55:47;100481.16;;;13.74;96.68
48652;BME280;34442;52.362;-1.302;2023-06-14T02:58:14;100481.09;;;13.62;97.64
48652;BME280;34442;52.362;-1.302;2023-06-14T03:00:39;100488.72;;;13.65;97.67
48652;BME280;34442;52.362;-1.302;2023-06-14T03:03:06;100484.00;;;13.60;98.32
48652;BME280;34442;52.362;-1.302;2023-06-14T03:05:48;100474.94;;;13.55;98.28
48652;BME280;34442;52.362;-1.302;2023-06-14T03:08:17;100476.47;;;13.44;99.40
48652;BME280;34442;52.362;-1.302;2023-06-14T03:10:45;100483.63;;;13.38;100.00
48652;BME280;34442;52.362;-1.302;2023-06-14T03:13:12;100479.91;;;13.33;100.00
48652;BME280;34442;52.362;-1.302;2023-06-14T03:15:37;100477.84;;;13.35;99.83
48652;BME280;34442;52.362;-1.302;2023-06-14T03:18:04;100470.16;;;13.32;100.00
48652;BME280;34442;52.362;-1.302;2023-06-14T03:20:29;100470.16;;;13.32;99.96
48652;BME280;34442;52.362;-1.302;2023-06-14T03:22:59;100476.66;;;13.24;100.00
48652;BME280;34442;52.362;-1.302;2023-06-14T03:25:25;100471.53;;;13.16;100.00
48652;BME280;34442;52.362;-1.302;2023-06-14T03:27:51;100475.03;;;13.23;100.00
48652;BME280;34442;52.362;-1.302;2023-06-14T03:30:16;100470.25;;;13.25;100.00
48652;BME280;34442;52.362;-1.302;2023-06-14T03:32:42;100479.38;;;13.24;100.00
48652;BME280;34442;52.362;-1.302;2023-06-14T03:35:07;100479.16;;;13.26;100.00
48652;BME280;34442;52.362;-1.302;2023-06-14T03:37:33;100472.31;;;13.23;100.00
48652;BME280;34442;52.362;-1.302;2023-06-14T03:39:59;100475.28;;;13.15;100.00
48652;BME280;34442;52.362;-1.302;2023-06-14T03:42:26;100476.72;;;13.18;100.00
48652;BME280;34442;52.362;-1.302;2023-06-14T03:44:51;100474.50;;;13.08;100.00
48652;BME280;34442;52.362;-1.302;2023-06-14T03:47:16;100476.88;;;12.98;100.00
48652;BME280;34442;52.362;-1.302;2023-06-14T03:49:42;100480.41;;;12.98;100.00
48652;BME280;34442;52.362;-1.302;2023-06-14T03:52:07;100479.41;;;12.93;100.00
48652;BME280;34442;52.362;-1.302;2023-06-14T03:54:33;100478.31;;;13.00;100.00
48652;BME280;34442;52.362;-1.302;2023-06-14T03:56:59;100484.31;;;13.02;100.00
48652;BME280;34442;52.362;-1.302;2023-06-14T03:59:24;100476.44;;;13.01;100.00
48652;BME280;34442;52.362;-1.302;2023-06-14T04:01:51;100475.91;;;12.92;100.00
48652;BME280;34442;52.362;-1.302;2023-06-14T04:04:16;100475.28;;;12.90;100.00
48652;BME280;34442;52.362;-1.302;2023-06-14T04:06:42;100481.94;;;12.87;100.00
48652;BME280;34442;52.362;-1.302;2023-06-14T04:09:08;100478.00;;;12.83;100.00
48652;BME280;34442;52.362;-1.302;2023-06-14T04:11:33;100478.63;;;12.85;100.00
48652;BME280;34442;52.362;-1.302;2023-06-14T04:13:59;100483.09;;;12.98;100.00
48652;BME280;34442;52.362;-1.302;2023-06-14T04:16:25;100482.03;;;12.99;100.00
48652;BME280;34442;52.362;-1.302;2023-06-14T04:18:51;100484.31;;;13.02;100.00
48652;BME280;34442;52.362;-1.302;2023-06-14T04:21:18;100490.34;;;13.04;100.00
48652;BME280;34442;52.362;-1.302;2023-06-14T04:23:43;100496.00;;;12.96;100.00
48652;BME280;34442;52.362;-1.302;2023-06-14T04:26:09;100494.88;;;13.04;100.00
48652;BME280;34442;52.362;-1.302;2023-06-14T04:28:36;100496.31;;;13.06;100.00
48652;BME280;34442;52.362;-1.302;2023-06-14T04:31:06;100491.75;;;13.07;100.00
48652;BME280;34442;52.362;-1.302;2023-06-14T04:33:36;100486.72;;;13.10;100.00
48652;BME280;34442;52.362;-1.302;2023-06-14T04:36:10;100487.56;;;13.11;100.00
48652;BME280;34442;52.362;-1.302;2023-06-14T04:38:37;100485.03;;;13.16;100.00
48652;BME280;34442;52.362;-1.302;2023-06-14T04:41:03;100479.84;;;13.14;100.00
48652;BME280;34442;52.362;-1.302;2023-06-14T04:43:28;100481.66;;;13.21;100.00
48652;BME280;34442;52.362;-1.302;2023-06-14T04:45:53;100486.69;;;13.17;100.00
48652;BME280;34442;52.362;-1.302;2023-06-14T04:48:22;100489.97;;;13.19;100.00
48652;BME280;34442;52.362;-1.302;2023-06-14T04:50:47;100492.53;;;13.14;100.00
48652;BME280;34442;52.362;-1.302;2023-06-14T04:53:13;100493.59;;;13.13;100.00
48652;BME280;34442;52.362;-1.302;2023-06-14T04:55:38;100492.25;;;13.22;100.00
48652;BME280;34442;52.362;-1.302;2023-06-14T04:58:04;100491.25;;;13.16;100.00
48652;BME280;34442;52.362;-1.302;2023-06-14T05:00:30;100497.69;;;13.15;100.00
48652;BME280;34442;52.362;-1.302;2023-06-14T05:02:58;100494.31;;;13.20;100.00
48652;BME280;34442;52.362;-1.302;2023-06-14T05:05:24;100499.81;;;13.13;100.00
48652;BME280;34442;52.362;-1.302;2023-06-14T05:07:50;100497.66;;;13.22;100.00
48652;BME280;34442;52.362;-1.302;2023-06-14T05:10:15;100483.53;;;13.20;100.00
48652;BME280;34442;52.362;-1.302;2023-06-14T05:12:41;100491.22;;;13.23;100.00
48652;BME280;34442;52.362;-1.302;2023-06-14T05:15:09;100492.44;;;13.27;100.00
48652;BME280;34442;52.362;-1.302;2023-06-14T05:17:35;100490.28;;;13.36;100.00
48652;BME280;34442;52.362;-1.302;2023-06-14T05:20:02;100494.19;;;13.40;100.00
48652;BME280;34442;52.362;-1.302;2023-06-14T05:22:27;100493.31;;;13.46;100.00
48652;BME280;34442;52.362;-1.302;2023-06-14T05:24:53;100493.59;;;13.38;100.00
48652;BME280;34442;52.362;-1.302;2023-06-14T05:27:18;100496.97;;;13.33;100.00
48652;BME280;34442;52.362;-1.302;2023-06-14T05:29:43;100490.72;;;13.33;100.00
48652;BME280;34442;52.362;-1.302;2023-06-14T05:32:09;100492.78;;;13.37;100.00
48652;BME280;34442;52.362;-1.302;2023-06-14T05:34:35;100488.63;;;13.35;100.00
48652;BME280;34442;52.362;-1.302;2023-06-14T05:37:00;100493.31;;;13.46;100.00
48652;BME280;34442;52.362;-1.302;2023-06-14T05:39:26;100493.41;;;13.58;100.00
48652;BME280;34442;52.362;-1.302;2023-06-14T05:41:51;100485.00;;;13.66;100.00
48652;BME280;34442;52.362;-1.302;2023-06-14T05:44:17;100488.16;;;13.81;100.00
48652;BME280;34442;52.362;-1.302;2023-06-14T05:46:43;100492.13;;;13.79;100.00
48652;BME280;34442;52.362;-1.302;2023-06-14T05:49:08;100484.19;;;13.84;100.00
48652;BME280;34442;52.362;-1.302;2023-06-14T05:51:34;100490.53;;;13.89;100.00
48652;BME280;34442;52.362;-1.302;2023-06-14T05:54:00;100500.38;;;14.02;100.00
48652;BME280;34442;52.362;-1.302;2023-06-14T05:56:26;100493.25;;;14.08;100.00
48652;BME280;34442;52.362;-1.302;2023-06-14T05:58:52;100487.03;;;14.07;100.00
48652;BME280;34442;52.362;-1.302;2023-06-14T06:01:17;100492.13;;;14.15;100.00
48652;BME280;34442;52.362;-1.302;2023-06-14T06:03:43;100500.38;;;14.21;100.00
48652;BME280;34442;52.362;-1.302;2023-06-14T06:06:12;100492.06;;;14.34;100.00
48652;BME280;34442;52.362;-1.302;2023-06-14T06:08:37;100494.47;;;14.42;100.00
48652;BME280;34442;52.362;-1.302;2023-06-14T06:11:06;100492.91;;;14.34;100.00
48652;BME280;34442;52.362;-1.302;2023-06-14T06:13:32;100504.09;;;14.38;100.00
48652;BME280;34442;52.362;-1.302;2023-06-14T06:15:57;100503.84;;;14.39;100.00
48652;BME280;34442;52.362;-1.302;2023-06-14T06:18:23;100498.81;;;14.43;100.00
48652;BME280;34442;52.362;-1.302;2023-06-14T06:20:48;100499.63;;;14.44;100.00
48652;BME280;34442;52.362;-1.302;2023-06-14T06:23:14;100497.84;;;14.56;100.00
48652;BME280;34442;52.362;-1.302;2023-06-14T06:25:39;100500.00;;;14.66;100.00
48652;BME280;34442;52.362;-1.302;2023-06-14T06:28:05;100498.00;;;14.73;100.00
48652;BME280;34442;52.362;-1.302;2023-06-14T06:30:31;100495.69;;;14.88;100.00
48652;BME280;34442;52.362;-1.302;2023-06-14T06:32:57;100500.19;;;14.94;100.00
48652;BME280;34442;52.362;-1.302;2023-06-14T06:35:22;100511.03;;;14.94;100.00
48652;BME280;34442;52.362;-1.302;2023-06-14T06:37:48;100507.25;;;14.95;100.00
48652;BME280;34442;52.362;-1.302;2023-06-14T06:40:13;100509.34;;;14.93;100.00
48652;BME280;34442;52.362;-1.302;2023-06-14T06:42:39;100509.25;;;15.00;100.00
48652;BME280;34442;52.362;-1.302;2023-06-14T06:45:05;100509.16;;;15.18;100.00
48652;BME280;34442;52.362;-1.302;2023-06-14T06:47:31;100504.19;;;15.03;100.00
48652;BME280;34442;52.362;-1.302;2023-06-14T06:49:56;100507.41;;;15.12;100.00
48652;BME280;34442;52.362;-1.302;2023-06-14T06:52:22;100504.69;;;15.24;100.00
48652;BME280;34442;52.362;-1.302;2023-06-14T06:54:47;100509.41;;;15.28;100.00
48652;BME280;34442;52.362;-1.302;2023-06-14T06:57:14;100506.81;;;15.22;100.00
48652;BME280;34442;52.362;-1.302;2023-06-14T06:59:39;100507.78;;;15.27;100.00
48652;BME280;34442;52.362;-1.302;2023-06-14T07:02:05;100515.06;;;15.27;100.00
48652;BME280;34442;52.362;-1.302;2023-06-14T07:04:31;100516.47;;;15.41;100.00
48652;BME280;34442;52.362;-1.302;2023-06-14T07:06:56;100514.34;;;15.55;100.00
48652;BME280;34442;52.362;-1.302;2023-06-14T07:09:22;100523.69;;;15.47;100.00
48652;BME280;34442;52.362;-1.302;2023-06-14T07:11:49;100518.50;;;15.46;100.00
48652;BME280;34442;52.362;-1.302;2023-06-14T07:14:15;100516.50;;;15.53;100.00
48652;BME280;34442;52.362;-1.302;2023-06-14T07:16:40;100520.28;;;15.63;100.00
48652;BME280;34442;52.362;-1.302;2023-06-14T07:19:06;100517.34;;;15.77;100.00
48652;BME280;34442;52.362;-1.302;2023-06-14T07:21:31;100528.66;;;15.74;100.00
48652;BME280;34442;52.362;-1.302;2023-06-14T07:23:57;100530.19;;;15.81;100.00
48652;BME280;34442;52.362;-1.302;2023-06-14T07:26:22;100536.16;;;15.83;100.00
48652;BME280;34442;52.362;-1.302;2023-06-14T07:28:48;100529.09;;;15.94;100.00
48652;BME280;34442;52.362;-1.302;2023-06-14T07:31:15;100532.97;;;15.98;100.00
48652;BME280;34442;52.362;-1.302;2023-06-14T07:33:41;100533.91;;;16.04;100.00
48652;BME280;34442;52.362;-1.302;2023-06-14T07:36:07;100532.81;;;16.17;100.00
48652;BME280;34442;52.362;-1.302;2023-06-14T07:38:33;100522.44;;;16.25;100.00
48652;BME280;34442;52.362;-1.302;2023-06-14T07:40:59;100532.50;;;16.13;100.00
48652;BME280;34442;52.362;-1.302;2023-06-14T07:43:24;100528.53;;;16.32;100.00
48652;BME280;34442;52.362;-1.302;2023-06-14T07:45:49;100539.34;;;16.44;100.00
48652;BME280;34442;52.362;-1.302;2023-06-14T07:48:15;100538.63;;;16.49;100.00
48652;BME280;34442;52.362;-1.302;2023-06-14T07:50:40;100532.13;;;16.50;100.00
48652;BME280;34442;52.362;-1.302;2023-06-14T07:53:06;100540.34;;;16.67;100.00
48652;BME280;34442;52.362;-1.302;2023-06-14T07:55:31;100545.41;;;16.63;100.00
48652;BME280;34442;52.362;-1.302;2023-06-14T07:57:58;100548.47;;;16.67;100.00
48652;BME280;34442;52.362;-1.302;2023-06-14T08:00:24;100544.66;;;16.79;100.00
48652;BME280;34442;52.362;-1.302;2023-06-14T08:02:49;100545.91;;;16.89;100.00
48652;BME280;34442;52.362;-1.302;2023-06-14T08:05:17;100538.44;;;16.96;100.00
48652;BME280;34442;52.362;-1.302;2023-06-14T08:07:43;100533.50;;;17.09;100.00
48652;BME280;34442;52.362;-1.302;2023-06-14T08:10:08;100544.22;;;17.33;100.00
48652;BME280;34442;52.362;-1.302;2023-06-14T08:12:34;100537.97;;;17.32;100.00
48652;BME280;34442;52.362;-1.302;2023-06-14T08:15:00;100540.19;;;17.35;100.00
48652;BME280;34442;52.362;-1.302;2023-06-14T08:17:25;100541.34;;;17.40;100.00
48652;BME280;34442;52.362;-1.302;2023-06-14T08:19:51;100546.47;;;17.53;100.00
48652;BME280;34442;52.362;-1.302;2023-06-14T08:22:17;100540.28;;;17.74;100.00
48652;BME280;34442;52.362;-1.302;2023-06-14T08:24:43;100537.25;;;17.93;100.00
48652;BME280;34442;52.362;-1.302;2023-06-14T08:27:09;100539.59;;;18.06;100.00
48652;BME280;34442;52.362;-1.302;2023-06-14T08:29:35;100539.69;;;18.11;100.00
48652;BME280;34442;52.362;-1.302;2023-06-14T08:32:01;100533.44;;;18.10;100.00
48652;BME280;34442;52.362;-1.302;2023-06-14T08:34:27;100537.66;;;18.23;100.00
48652;BME280;34442;52.362;-1.302;2023-06-14T08:36:52;100542.31;;;18.50;100.00
48652;BME280;34442;52.362;-1.302;2023-06-14T08:39:18;100536.31;;;18.48;100.00
48652;BME280;34442;52.362;-1.302;2023-06-14T08:41:47;100536.63;;;18.73;100.00
48652;BME280;34442;52.362;-1.302;2023-06-14T08:44:18;100528.94;;;18.97;100.00
48652;BME280;34442;52.362;-1.302;2023-06-14T08:46:43;100530.25;;;18.90;100.00
48652;BME280;34442;52.362;-1.302;2023-06-14T08:49:12;100529.53;;;19.04;100.00
48652;BME280;34442;52.362;-1.302;2023-06-14T08:51:41;100530.53;;;19.25;100.00
48652;BME280;34442;52.362;-1.302;2023-06-14T08:54:10;100536.44;;;19.49;100.00
48652;BME280;34442;52.362;-1.302;2023-06-14T08:56:40;100525.00;;;19.47;100.00
48652;BME280;34442;52.362;-1.302;2023-06-14T08:59:09;100524.88;;;19.69;100.00
48652;BME280;34442;52.362;-1.302;2023-06-14T09:01:36;100525.19;;;19.73;100.00
48652;BME280;34442;52.362;-1.302;2023-06-14T09:04:02;100531.16;;;19.70;100.00
48652;BME280;34442;52.362;-1.302;2023-06-14T09:06:30;100535.31;;;19.82;100.00
48652;BME280;34442;52.362;-1.302;2023-06-14T09:08:55;100534.81;;;19.86;100.00
48652;BME280;34442;52.362;-1.302;2023-06-14T09:11:24;100538.06;;;19.82;100.00
48652;BME280;34442;52.362;-1.302;2023-06-14T09:13:51;100539.16;;;19.81;100.00
48652;BME280;34442;52.362;-1.302;2023-06-14T09:16:16;100529.47;;;20.11;99.77
48652;BME280;34442;52.362;-1.302;2023-06-14T09:18:46;100527.94;;;20.41;98.63
48652;BME280;34442;52.362;-1.302;2023-06-14T09:21:16;100526.88;;;20.47;98.68
48652;BME280;34442;52.362;-1.302;2023-06-14T09:23:47;100538.91;;;20.46;96.83
48652;BME280;34442;52.362;-1.302;2023-06-14T09:26:17;100527.53;;;20.79;95.60
48652;BME280;34442;52.362;-1.302;2023-06-14T09:28:48;100531.91;;;20.80;95.82
48652;BME280;34442;52.362;-1.302;2023-06-14T09:31:15;100543.13;;;20.89;95.59
48652;BME280;34442;52.362;-1.302;2023-06-14T09:33:44;100534.94;;;21.15;94.05
48652;BME280;34442;52.362;-1.302;2023-06-14T09:36:17;100533.03;;;21.05;92.96
48652;BME280;34442;52.362;-1.302;2023-06-14T09:41:19;100529.47;;;21.55;91.69
48652;BME280;34442;52.362;-1.302;2023-06-14T09:43:46;100525.91;;;21.55;91.90
48652;BME280;34442;52.362;-1.302;2023-06-14T09:46:13;100518.78;;;21.69;90.89
48652;BME280;34442;52.362;-1.302;2023-06-14T09:48:38;100528.59;;;21.86;90.61
48652;BME280;34442;52.362;-1.302;2023-06-14T09:51:10;100524.78;;;21.76;88.41
48652;BME280;34442;52.362;-1.302;2023-06-14T09:53:36;100527.19;;;21.88;89.56
48652;BME280;34442;52.362;-1.302;2023-06-14T09:56:04;100529.69;;;21.85;89.59
48652;BME280;34442;52.362;-1.302;2023-06-14T09:58:30;100529.66;;;21.95;89.19
48652;BME280;34442;52.362;-1.302;2023-06-14T10:00:58;100530.22;;;21.87;89.30
48652;BME280;34442;52.362;-1.302;2023-06-14T10:03:28;100527.19;;;21.88;89.06
48652;BME280;34442;52.362;-1.302;2023-06-14T10:05:55;100530.22;;;21.87;88.70
48652;BME280;34442;52.362;-1.302;2023-06-14T10:08:27;100530.75;;;21.89;87.47
48652;BME280;34442;52.362;-1.302;2023-06-14T10:10:56;100528.28;;;21.92;87.84
48652;BME280;34442;52.362;-1.302;2023-06-14T10:13:22;100531.81;;;22.08;87.32
48652;BME280;34442;52.362;-1.302;2023-06-14T10:16:47;100529.25;;;22.37;80.20
48652;BME280;34442;52.362;-1.302;2023-06-14T10:18:50;100529.19;;;22.47;78.07
48652;BME280;34442;52.362;-1.302;2023-06-14T10:23:51;100528.06;;;22.53;84.22
48652;BME280;34442;52.362;-1.302;2023-06-14T10:26:19;100524.47;;;22.63;83.33
48652;BME280;34442;52.362;-1.302;2023-06-14T10:28:56;100533.63;;;22.83;78.59
48652;BME280;34442;52.362;-1.302;2023-06-14T10:31:22;100530.88;;;22.93;82.12
48652;BME280;34442;52.362;-1.302;2023-06-14T10:39:07;100523.09;;;23.05;74.28
48652;BME280;34442;52.362;-1.302;2023-06-14T10:41:38;100532.91;;;23.11;78.64
48652;BME280;34442;52.362;-1.302;2023-06-14T10:46:39;100521.38;;;23.14;79.74
48652;BME280;34442;52.362;-1.302;2023-06-14T10:49:04;100520.06;;;23.07;79.87
48652;BME280;34442;52.362;-1.302;2023-06-14T10:51:39;100532.16;;;23.06;73.48
48652;BME280;34442;52.362;-1.302;2023-06-14T10:54:15;100518.13;;;23.07;79.06
48652;BME280;34442;52.362;-1.302;2023-06-14T10:56:48;100528.00;;;23.08;75.49
48652;BME280;34442;52.362;-1.302;2023-06-14T10:59:14;100524.88;;;22.81;80.44
48652;BME280;34442;52.362;-1.302;2023-06-14T11:04:50;100520.22;;;22.81;72.45
48652;BME280;34442;52.362;-1.302;2023-06-14T11:12:47;100517.25;;;23.46;77.17
48652;BME280;34442;52.362;-1.302;2023-06-14T11:15:13;100519.13;;;23.21;77.39
48652;BME280;34442;52.362;-1.302;2023-06-14T11:17:39;100516.56;;;23.30;75.81
48652;BME280;34442;52.362;-1.302;2023-06-14T11:20:11;100513.09;;;23.19;72.88
48652;BME280;34442;52.362;-1.302;2023-06-14T11:22:44;100507.72;;;23.38;74.41
48652;BME280;34442;52.362;-1.302;2023-06-14T11:25:12;100512.19;;;23.58;74.64
48652;BME280;34442;52.362;-1.302;2023-06-14T11:27:37;100511.78;;;23.46;74.74
48652;BME280;34442;52.362;-1.302;2023-06-14T11:30:07;100502.94;;;23.49;72.41
48652;BME280;34442;52.362;-1.302;2023-06-14T11:32:33;100497.63;;;23.58;73.54
48652;BME280;34442;52.362;-1.302;2023-06-14T11:34:58;100510.31;;;23.83;72.66
48652;BME280;34442;52.362;-1.302;2023-06-14T11:37:27;100503.16;;;24.06;71.68
48652;BME280;34442;52.362;-1.302;2023-06-14T11:39:58;100497.34;;;23.88;72.74
48652;BME280;34442;52.362;-1.302;2023-06-14T11:42:26;100499.31;;;23.53;72.50
48652;BME280;34442;52.362;-1.302;2023-06-14T11:44:53;100488.47;;;23.72;72.78
48652;BME280;34442;52.362;-1.302;2023-06-14T11:47:18;100494.28;;;23.90;72.04
48652;BME280;34442;52.362;-1.302;2023-06-14T11:49:46;100500.19;;;23.78;72.04
48652;BME280;34442;52.362;-1.302;2023-06-14T11:52:11;100498.22;;;23.84;72.15
48652;BME280;34442;52.362;-1.302;2023-06-14T11:54:37;100493.47;;;23.65;72.33
48652;BME280;34442;52.362;-1.302;2023-06-14T11:57:03;100497.16;;;23.80;72.06
48652;BME280;34442;52.362;-1.302;2023-06-14T11:59:30;100485.38;;;24.03;71.87
48652;BME280;34442;52.362;-1.302;2023-06-14T12:01:56;100492.25;;;24.19;71.58
48652;BME280;34442;52.362;-1.302;2023-06-14T12:04:29;100483.44;;;24.22;66.75
48652;BME280;34442;52.362;-1.302;2023-06-14T12:06:55;100485.88;;;24.05;69.64
48652;BME280;34442;52.362;-1.302;2023-06-14T12:09:23;100491.31;;;23.86;67.94
48652;BME280;34442;52.362;-1.302;2023-06-14T12:11:49;100483.84;;;23.68;67.47
48652;BME280;34442;52.362;-1.302;2023-06-14T12:14:15;100498.78;;;23.81;67.76
48652;BME280;34442;52.362;-1.302;2023-06-14T12:16:42;100494.53;;;23.93;67.60
48652;BME280;34442;52.362;-1.302;2023-06-14T12:21:39;100481.16;;;23.58;67.99
48652;BME280;34442;52.362;-1.302;2023-06-14T12:24:06;100486.53;;;23.44;67.39
48652;BME280;34442;52.362;-1.302;2023-06-14T12:26:32;100482.84;;;23.53;66.41
48652;BME280;34442;52.362;-1.302;2023-06-14T12:28:58;100484.22;;;23.56;66.19
48652;BME280;34442;52.362;-1.302;2023-06-14T12:31:27;100477.47;;;23.72;65.57
48652;BME280;34442;52.362;-1.302;2023-06-14T12:33:55;100479.84;;;23.55;65.80
48652;BME280;34442;52.362;-1.302;2023-06-14T12:36:20;100478.84;;;23.75;65.32
48652;BME280;34442;52.362;-1.302;2023-06-14T12:38:46;100484.25;;;23.80;64.89
48652;BME280;34442;52.362;-1.302;2023-06-14T12:41:12;100483.53;;;23.69;63.80
48652;BME280;34442;52.362;-1.302;2023-06-14T12:43:39;100473.34;;;23.75;64.02
48652;BME280;34442;52.362;-1.302;2023-06-14T12:46:08;100479.09;;;23.73;64.08
48652;BME280;34442;52.362;-1.302;2023-06-14T12:48:33;100477.78;;;23.71;64.45
48652;BME280;34442;52.362;-1.302;2023-06-14T12:50:59;100473.69;;;23.68;65.70
48652;BME280;34442;52.362;-1.302;2023-06-14T12:53:25;100472.19;;;23.52;66.10
48652;BME280;34442;52.362;-1.302;2023-06-14T12:55:50;100472.81;;;23.44;66.65
48652;BME280;34442;52.362;-1.302;2023-06-14T12:58:16;100474.53;;;23.64;65.78
48652;BME280;34442;52.362;-1.302;2023-06-14T13:00:44;100477.22;;;23.69;65.52